createdAt,value
2023-05-19T00:01:07.610Z,19.55
2023-05-19T00:02:01.218Z,19.53
2023-05-19T00:03:14.115Z,19.53
2023-05-19T00:04:17.714Z,19.56
2023-05-19T00:05:30.371Z,19.53
2023-05-19T00:06:43.664Z,19.55
2023-05-19T00:07:46.306Z,19.53
2023-05-19T00:08:59.669Z,19.52
2023-05-19T00:10:12.235Z,19.55
2023-05-19T00:11:25.687Z,19.52
2023-05-19T00:12:28.314Z,19.53
2023-05-19T00:13:41.696Z,19.5
2023-05-19T00:14:54.236Z,19.5
2023-05-19T00:16:17.239Z,19.49
2023-05-19T00:17:10.041Z,19.5
2023-05-19T00:18:23.200Z,19.49
2023-05-19T00:19:25.866Z,19.49
2023-05-19T00:20:39.192Z,19.46
2023-05-19T00:22:11.414Z,19.49
2023-05-19T00:23:05.158Z,19.47
2023-05-19T00:24:07.851Z,19.47
2023-05-19T00:25:21.221Z,19.5
2023-05-19T00:26:33.877Z,19.47
2023-05-19T00:27:37.166Z,19.49
2023-05-19T00:28:49.714Z,19.49
2023-05-19T00:30:03.171Z,19.47
2023-05-19T00:31:05.592Z,19.46
2023-05-19T00:32:19.185Z,19.47
2023-05-19T00:33:31.742Z,19.47
2023-05-19T00:34:45.151Z,19.45
2023-05-19T00:35:47.897Z,19.46
2023-05-19T00:37:01.163Z,19.42
2023-05-19T00:38:13.732Z,19.43
2023-05-19T00:39:17.709Z,19.4
2023-05-19T00:40:30.438Z,19.42
2023-05-19T00:41:44.214Z,19.42
2023-05-19T00:42:46.937Z,19.42
2023-05-19T00:44:00.202Z,19.4
2023-05-19T00:45:12.853Z,19.38
2023-05-19T00:46:26.213Z,19.38
2023-05-19T00:47:29.036Z,19.39
2023-05-19T00:48:42.698Z,19.36
2023-05-19T00:49:55.281Z,19.38
2023-05-19T00:50:58.721Z,19.38
2023-05-19T00:52:11.381Z,19.38
2023-05-19T00:53:24.720Z,19.35
2023-05-19T00:54:27.373Z,19.35
2023-05-19T00:55:40.726Z,19.33
2023-05-19T00:56:53.286Z,19.32
2023-05-19T00:58:06.215Z,19.36
2023-05-19T00:59:08.710Z,19.33
2023-05-19T01:00:21.688Z,19.32
2023-05-19T01:01:34.356Z,19.35
2023-05-19T01:02:38.251Z,19.33
2023-05-19T01:03:51.071Z,19.33
2023-05-19T01:05:04.674Z,19.33
2023-05-19T01:06:07.461Z,19.3
2023-05-19T01:07:21.234Z,19.33
2023-05-19T01:08:33.838Z,19.3
2023-05-19T01:09:47.212Z,19.3
2023-05-19T01:10:50.849Z,19.3
2023-05-19T01:12:04.188Z,19.32
2023-05-19T01:13:16.751Z,19.3
2023-05-19T01:14:20.198Z,19.26
2023-05-19T01:15:52.365Z,19.29
2023-05-19T01:16:45.730Z,19.29
2023-05-19T01:17:48.428Z,19.27
2023-05-19T01:19:21.775Z,19.27
2023-05-19T01:20:14.539Z,19.27
2023-05-19T01:21:28.189Z,19.3
2023-05-19T01:22:30.842Z,19.32
2023-05-19T01:23:44.233Z,19.32
2023-05-19T01:24:56.829Z,19.29
2023-05-19T01:26:00.223Z,19.29
2023-05-19T01:27:12.818Z,19.3
2023-05-19T01:28:26.182Z,19.3
2023-05-19T01:29:38.745Z,19.29
2023-05-19T01:30:42.188Z,19.27
2023-05-19T01:31:54.783Z,19.27
2023-05-19T01:33:08.300Z,19.26
2023-05-19T01:34:11.053Z,19.26
2023-05-19T01:35:24.215Z,19.26
2023-05-19T01:36:36.783Z,19.25
2023-05-19T01:37:50.190Z,19.25
2023-05-19T01:38:52.845Z,19.26
2023-05-19T01:40:06.237Z,19.23
2023-05-19T01:41:18.820Z,19.22
2023-05-19T01:42:22.202Z,19.2
2023-05-19T01:43:34.778Z,19.2
2023-05-19T01:44:48.195Z,19.23
2023-05-19T01:45:50.883Z,19.22
2023-05-19T01:47:04.206Z,19.19
2023-05-19T01:48:36.547Z,19.19
2023-05-19T01:49:30.234Z,19.22
2023-05-19T01:50:33.034Z,19.19
2023-05-19T01:51:46.741Z,19.2
2023-05-19T01:52:59.319Z,19.19
2023-05-19T01:54:02.720Z,19.22
2023-05-19T01:55:15.298Z,19.19
2023-05-19T01:56:28.713Z,19.19
2023-05-19T01:57:32.347Z,19.17
2023-05-19T01:58:45.707Z,19.17
2023-05-19T01:59:58.289Z,19.19
2023-05-19T02:01:11.738Z,19.17
2023-05-19T02:02:14.499Z,19.16
2023-05-19T02:03:27.715Z,19.15
2023-05-19T02:04:40.568Z,19.16
2023-05-19T02:05:44.218Z,19.15
2023-05-19T02:06:57.039Z,19.11
2023-05-19T02:08:10.233Z,19.15
2023-05-19T02:09:12.876Z,19.12
2023-05-19T02:10:26.244Z,19.13
2023-05-19T02:11:38.839Z,19.12
2023-05-19T02:12:52.226Z,19.12
2023-05-19T02:13:54.864Z,19.11
2023-05-19T02:15:08.274Z,19.12
2023-05-19T02:16:21.108Z,19.11
2023-05-19T02:17:24.767Z,19.09
2023-05-19T02:18:37.487Z,19.11
2023-05-19T02:19:51.244Z,19.09
2023-05-19T02:20:53.942Z,19.09
2023-05-19T02:22:07.349Z,19.08
2023-05-19T02:23:20.052Z,19.08
2023-05-19T02:24:23.744Z,19.09
2023-05-19T02:25:36.343Z,19.08
2023-05-19T02:26:49.747Z,19.08
2023-05-19T02:28:02.349Z,19.08
2023-05-19T02:29:05.698Z,19.08
2023-05-19T02:30:18.361Z,19.08
2023-05-19T02:31:31.725Z,19.06
2023-05-19T02:32:34.547Z,19.08
2023-05-19T02:33:48.222Z,19.06
2023-05-19T02:35:00.834Z,19.05
2023-05-19T02:36:14.192Z,19.06
2023-05-19T02:37:16.870Z,19.05
2023-05-19T02:38:30.216Z,19.05
2023-05-19T02:39:42.809Z,19.05
2023-05-19T02:40:46.244Z,19.06
2023-05-19T02:41:58.842Z,19.04
2023-05-19T02:43:12.245Z,19.05
2023-05-19T02:44:14.917Z,19.02
2023-05-19T02:45:28.234Z,19.02
2023-05-19T02:46:41.100Z,19.04
2023-05-19T02:47:54.760Z,19.02
2023-05-19T02:48:57.548Z,19.02
2023-05-19T02:50:11.242Z,19.02
2023-05-19T02:51:23.854Z,19.01
2023-05-19T02:52:27.250Z,19.01
2023-05-19T02:53:39.847Z,19.01
2023-05-19T02:54:53.244Z,18.99
2023-05-19T02:55:55.931Z,18.99
2023-05-19T02:57:09.230Z,18.99
2023-05-19T02:58:21.834Z,18.98
2023-05-19T02:59:35.261Z,19.01
2023-05-19T03:00:37.966Z,18.99
2023-05-19T03:01:51.262Z,19.01
2023-05-19T03:03:04.091Z,18.96
2023-05-19T03:04:07.781Z,18.98
2023-05-19T03:05:20.464Z,18.99
2023-05-19T03:06:33.747Z,18.98
2023-05-19T03:07:36.420Z,18.94
2023-05-19T03:08:49.727Z,18.98
2023-05-19T03:10:02.319Z,18.95
2023-05-19T03:11:15.753Z,18.95
2023-05-19T03:12:18.403Z,18.96
2023-05-19T03:13:31.760Z,18.95
2023-05-19T03:14:44.368Z,18.96
2023-05-19T03:15:47.742Z,18.95
2023-05-19T03:17:00.381Z,18.94
2023-05-19T03:18:13.806Z,18.95
2023-05-19T03:19:16.608Z,18.94
2023-05-19T03:20:30.403Z,18.92
2023-05-19T03:21:43.206Z,18.95
2023-05-19T03:22:56.765Z,18.94
2023-05-19T03:23:59.451Z,18.92
2023-05-19T03:25:12.746Z,18.92
2023-05-19T03:26:25.367Z,18.94
2023-05-19T03:27:28.717Z,18.94
2023-05-19T03:28:41.312Z,18.94
2023-05-19T03:29:54.796Z,18.91
2023-05-19T03:30:57.437Z,18.91
2023-05-19T03:32:10.809Z,18.92
2023-05-19T03:33:23.697Z,18.89
2023-05-19T03:34:37.222Z,18.91
2023-05-19T03:35:39.987Z,18.89
2023-05-19T03:36:53.260Z,18.91
2023-05-19T03:38:05.780Z,18.92
2023-05-19T03:39:09.230Z,18.89
2023-05-19T03:40:21.777Z,18.89
2023-05-19T03:41:35.233Z,18.89
2023-05-19T03:42:47.824Z,18.89
2023-05-19T03:43:51.229Z,18.88
2023-05-19T03:45:03.823Z,18.85
2023-05-19T03:46:17.303Z,18.88
2023-05-19T03:47:20.092Z,18.89
2023-05-19T03:48:33.247Z,18.85
2023-05-19T03:49:45.868Z,18.87
2023-05-19T03:50:59.342Z,18.88
2023-05-19T03:52:02.014Z,18.87
2023-05-19T03:53:15.233Z,18.88
2023-05-19T03:54:27.846Z,18.88
2023-05-19T03:55:32.273Z,18.85
2023-05-19T03:56:44.948Z,18.88
2023-05-19T03:57:58.773Z,18.87
2023-05-19T03:59:01.471Z,18.87
2023-05-19T04:00:24.770Z,18.88
2023-05-19T04:01:27.665Z,18.82
2023-05-19T04:02:31.379Z,18.84
2023-05-19T04:03:44.209Z,18.84
2023-05-19T04:04:57.928Z,18.85
2023-05-19T04:06:00.702Z,18.85
2023-05-19T04:07:14.269Z,18.84
2023-05-19T04:08:26.917Z,18.84
2023-05-19T04:09:40.235Z,18.84
2023-05-19T04:10:42.909Z,18.84
2023-05-19T04:11:56.284Z,18.84
2023-05-19T04:13:08.920Z,18.82
2023-05-19T04:14:12.271Z,18.85
2023-05-19T04:15:24.893Z,18.84
2023-05-19T04:16:38.268Z,18.84
2023-05-19T04:17:41.000Z,18.84
2023-05-19T04:18:54.341Z,18.87
2023-05-19T04:20:07.082Z,18.85
2023-05-19T04:21:20.757Z,18.84
2023-05-19T04:22:23.424Z,18.84
2023-05-19T04:23:36.731Z,18.84
2023-05-19T04:24:49.349Z,18.84
2023-05-19T04:25:52.747Z,18.8
2023-05-19T04:27:05.354Z,18.85
2023-05-19T04:28:18.770Z,18.82
2023-05-19T04:29:21.442Z,18.82
2023-05-19T04:30:34.940Z,18.84
2023-05-19T04:31:47.664Z,18.85
2023-05-19T04:33:01.329Z,18.84
2023-05-19T04:34:04.093Z,18.85
2023-05-19T04:35:17.230Z,18.84
2023-05-19T04:36:29.847Z,18.82
2023-05-19T04:37:33.273Z,18.84
2023-05-19T04:38:45.884Z,18.82
2023-05-19T04:39:59.252Z,18.82
2023-05-19T04:41:11.874Z,18.82
2023-05-19T04:42:15.242Z,18.82
2023-05-19T04:43:27.849Z,18.84
2023-05-19T04:44:41.281Z,18.82
2023-05-19T04:45:44.033Z,18.82
2023-05-19T04:46:57.274Z,18.81
2023-05-19T04:48:09.941Z,18.81
2023-05-19T04:49:13.270Z,18.82
2023-05-19T04:50:25.872Z,18.82
2023-05-19T04:51:39.271Z,18.85
2023-05-19T04:52:51.876Z,18.82
2023-05-19T04:54:05.306Z,18.81
2023-05-19T04:55:08.054Z,18.85
2023-05-19T04:56:21.243Z,18.81
2023-05-19T04:57:23.888Z,18.82
2023-05-19T04:58:37.748Z,18.84
2023-05-19T04:59:50.939Z,18.81
2023-05-19T05:00:54.282Z,18.82
2023-05-19T05:02:07.017Z,18.82
2023-05-19T05:03:20.878Z,18.85
2023-05-19T05:04:23.624Z,18.87
2023-05-19T05:05:37.256Z,18.85
2023-05-19T05:06:49.882Z,18.85
2023-05-19T05:08:03.264Z,18.84
2023-05-19T05:09:05.937Z,18.84
2023-05-19T05:10:19.256Z,18.85
2023-05-19T05:11:31.979Z,18.84
2023-05-19T05:12:35.262Z,18.85
2023-05-19T05:13:47.863Z,18.87
2023-05-19T05:15:01.801Z,18.85
2023-05-19T05:16:05.018Z,18.88
2023-05-19T05:17:18.270Z,18.85
2023-05-19T05:18:30.851Z,18.87
2023-05-19T05:19:44.366Z,18.87
2023-05-19T05:20:47.033Z,18.89
2023-05-19T05:22:00.247Z,18.98
2023-05-19T05:23:12.766Z,19.08
2023-05-19T05:24:16.269Z,19.2
2023-05-19T05:25:28.724Z,19.3
2023-05-19T05:26:42.278Z,19.4
2023-05-19T05:27:54.723Z,19.55
2023-05-19T05:28:58.249Z,19.67
2023-05-19T05:30:10.651Z,19.76
2023-05-19T05:31:24.279Z,19.9
2023-05-19T05:32:26.837Z,20.01
2023-05-19T05:33:40.280Z,20.14
2023-05-19T05:34:52.790Z,20.21
2023-05-19T05:36:05.752Z,20.31
2023-05-19T05:37:08.343Z,20.37
2023-05-19T05:38:21.765Z,20.44
2023-05-19T05:39:34.132Z,20.48
2023-05-19T05:40:37.273Z,20.51
2023-05-19T05:41:49.609Z,20.57
2023-05-19T05:43:02.746Z,20.59
2023-05-19T05:44:05.231Z,20.62
2023-05-19T05:45:18.233Z,20.66
2023-05-19T05:46:30.624Z,20.68
2023-05-19T05:47:43.796Z,20.7
2023-05-19T05:48:46.225Z,20.72
2023-05-19T05:49:59.794Z,20.76
2023-05-19T05:51:12.138Z,20.73
2023-05-19T05:52:25.257Z,20.76
2023-05-19T05:53:27.698Z,20.76
2023-05-19T05:54:40.780Z,20.8
2023-05-19T05:55:53.129Z,20.86
2023-05-19T05:56:56.257Z,20.86
2023-05-19T05:58:08.610Z,20.9
2023-05-19T05:59:21.801Z,20.93
2023-05-19T06:00:34.378Z,20.96
2023-05-19T06:01:41.179Z,20.96
2023-05-19T06:02:53.601Z,20.99
2023-05-19T06:03:56.757Z,21.03
2023-05-19T06:05:09.095Z,21.06
2023-05-19T06:06:22.298Z,21.11
2023-05-19T06:07:26.280Z,21.17
2023-05-19T06:08:39.377Z,21.21
2023-05-19T06:09:51.672Z,21.26
2023-05-19T06:10:54.847Z,21.27
2023-05-19T06:12:07.202Z,21.33
2023-05-19T06:13:20.268Z,21.37
2023-05-19T06:14:32.612Z,21.4
2023-05-19T06:15:35.833Z,21.43
2023-05-19T06:16:48.205Z,21.44
2023-05-19T06:18:01.863Z,21.47
2023-05-19T06:19:06.360Z,21.47
2023-05-19T06:20:19.801Z,21.5
2023-05-19T06:21:32.036Z,21.53
2023-05-19T06:22:35.284Z,21.54
2023-05-19T06:23:47.627Z,21.55
2023-05-19T06:25:00.888Z,21.57
2023-05-19T06:26:13.210Z,21.57
2023-05-19T06:27:16.357Z,21.6
2023-05-19T06:28:28.753Z,21.61
2023-05-19T06:29:42.099Z,21.64
2023-05-19T06:30:44.476Z,21.62
2023-05-19T06:31:57.824Z,21.64
2023-05-19T06:33:10.156Z,21.65
2023-05-19T06:34:23.299Z,21.68
2023-05-19T06:35:25.648Z,21.68
2023-05-19T06:36:38.843Z,21.67
2023-05-19T06:37:51.171Z,21.68
2023-05-19T06:38:54.270Z,21.72
2023-05-19T06:40:06.618Z,21.71
2023-05-19T06:41:19.777Z,21.72
2023-05-19T06:42:22.245Z,21.72
2023-05-19T06:43:35.312Z,21.74
2023-05-19T06:44:47.601Z,21.74
2023-05-19T06:46:00.813Z,21.74
2023-05-19T06:47:03.340Z,21.75
2023-05-19T06:48:16.549Z,21.74
2023-05-19T06:49:30.420Z,21.77
2023-05-19T06:50:33.976Z,21.78
2023-05-19T06:51:46.479Z,21.78
2023-05-19T06:52:59.841Z,21.78
2023-05-19T06:54:02.520Z,21.78
2023-05-19T06:55:15.814Z,21.82
2023-05-19T06:56:28.100Z,21.84
2023-05-19T06:57:41.348Z,21.84
2023-05-19T06:58:43.897Z,21.84
2023-05-19T06:59:56.813Z,21.82
2023-05-19T07:01:09.105Z,21.84
2023-05-19T07:02:12.345Z,21.82
2023-05-19T07:03:24.836Z,21.85
2023-05-19T07:04:38.274Z,21.84
2023-05-19T07:05:40.698Z,21.88
2023-05-19T07:06:53.803Z,21.85
2023-05-19T07:08:06.004Z,21.88
2023-05-19T07:09:19.336Z,21.91
2023-05-19T07:10:22.419Z,21.91
2023-05-19T07:11:35.795Z,21.9
2023-05-19T07:12:48.308Z,21.9
2023-05-19T07:13:51.803Z,21.91
2023-05-19T07:15:04.334Z,21.94
2023-05-19T07:16:17.861Z,21.9
2023-05-19T07:17:20.584Z,21.94
2023-05-19T07:18:33.821Z,21.95
2023-05-19T07:19:46.105Z,21.94
2023-05-19T07:20:59.285Z,21.97
2023-05-19T07:22:01.686Z,21.98
2023-05-19T07:23:17.137Z,21.97
2023-05-19T07:24:19.938Z,21.97
2023-05-19T07:25:32.811Z,21.97
2023-05-19T07:26:45.089Z,21.98
2023-05-19T07:27:58.328Z,21.99
2023-05-19T07:29:00.736Z,21.99
2023-05-19T07:30:13.842Z,21.99
2023-05-19T07:31:26.178Z,22.01
2023-05-19T07:32:29.320Z,21.99
2023-05-19T07:33:41.680Z,22.01
2023-05-19T07:35:04.332Z,22.02
2023-05-19T07:36:06.658Z,22.05
2023-05-19T07:37:09.840Z,22.05
2023-05-19T07:38:22.046Z,22.03
2023-05-19T07:39:35.314Z,22.05
2023-05-19T07:40:37.707Z,22.05
2023-05-19T07:41:50.795Z,22.08
2023-05-19T07:43:02.984Z,22.11
2023-05-19T07:44:15.811Z,22.11
2023-05-19T07:45:18.216Z,22.09
2023-05-19T07:46:31.517Z,22.11
2023-05-19T07:47:44.406Z,22.09
2023-05-19T07:48:47.825Z,22.12
2023-05-19T07:50:00.198Z,22.11
2023-05-19T07:51:13.314Z,22.11
2023-05-19T07:52:25.583Z,22.13
2023-05-19T07:53:28.810Z,22.13
2023-05-19T07:54:41.072Z,22.13
2023-05-19T07:55:55.467Z,22.15
2023-05-19T07:56:58.903Z,22.15
2023-05-19T07:58:11.826Z,22.15
2023-05-19T07:59:24.096Z,22.16
2023-05-19T08:00:27.317Z,22.16
2023-05-19T08:01:39.549Z,22.16
2023-05-19T08:02:53.071Z,22.15
2023-05-19T08:03:59.904Z,22.16
2023-05-19T08:05:13.338Z,22.19
2023-05-19T08:06:15.726Z,22.19
2023-05-19T08:07:28.891Z,22.22
2023-05-19T08:08:41.162Z,22.21
2023-05-19T08:09:54.335Z,22.21
2023-05-19T08:10:56.648Z,22.23
2023-05-19T08:12:09.807Z,22.21
2023-05-19T08:13:22.095Z,22.22
2023-05-19T08:14:25.350Z,22.23
2023-05-19T08:15:37.611Z,22.23
2023-05-19T08:17:01.260Z,22.26
2023-05-19T08:18:03.582Z,22.25
2023-05-19T08:19:06.866Z,22.25
2023-05-19T08:20:19.267Z,22.26
2023-05-19T08:21:32.329Z,22.3
2023-05-19T08:22:34.675Z,22.29
2023-05-19T08:23:49.373Z,22.29
2023-05-19T08:25:01.697Z,22.32
2023-05-19T08:26:06.384Z,22.32
2023-05-19T08:27:18.582Z,22.35
2023-05-19T08:28:32.141Z,22.35
2023-05-19T08:29:34.565Z,22.33
2023-05-19T08:30:47.832Z,22.33
2023-05-19T08:32:19.805Z,22.35
2023-05-19T08:33:13.456Z,22.35
2023-05-19T08:34:15.924Z,22.39
2023-05-19T08:35:28.821Z,22.38
2023-05-19T08:36:41.062Z,22.41
2023-05-19T08:37:44.332Z,22.43
2023-05-19T08:38:56.556Z,22.42
2023-05-19T08:40:09.857Z,22.43
2023-05-19T08:41:21.785Z,22.49
2023-05-19T08:42:24.836Z,22.45
2023-05-19T08:43:37.316Z,22.48
2023-05-19T08:44:50.442Z,22.49
2023-05-19T08:45:52.963Z,22.49
2023-05-19T08:47:05.851Z,22.5
2023-05-19T08:48:18.200Z,22.56
2023-05-19T08:49:31.324Z,22.54
2023-05-19T08:50:33.941Z,22.53
2023-05-19T08:51:47.328Z,22.54
2023-05-19T08:52:59.693Z,22.57
2023-05-19T08:54:04.337Z,22.59
2023-05-19T08:55:16.623Z,22.56
2023-05-19T08:56:29.862Z,22.56
2023-05-19T08:57:32.190Z,22.6
2023-05-19T08:58:45.320Z,22.57
2023-05-19T08:59:57.552Z,22.6
2023-05-19T09:01:00.873Z,22.63
2023-05-19T09:02:13.081Z,22.62
2023-05-19T09:03:25.904Z,22.64
2023-05-19T09:04:38.328Z,22.63
2023-05-19T09:05:41.423Z,22.63
2023-05-19T09:06:54.382Z,22.64
2023-05-19T09:08:07.336Z,22.66
2023-05-19T09:09:09.702Z,22.66
2023-05-19T09:10:22.861Z,22.69
2023-05-19T09:11:35.090Z,22.7
2023-05-19T09:12:48.388Z,22.7
2023-05-19T09:13:50.824Z,22.7
2023-05-19T09:15:03.855Z,22.72
2023-05-19T09:16:16.113Z,22.72
2023-05-19T09:17:19.342Z,22.73
2023-05-19T09:18:31.535Z,22.74
2023-05-19T09:19:44.330Z,22.72
2023-05-19T09:20:56.557Z,22.77
2023-05-19T09:21:59.832Z,22.74
2023-05-19T09:23:12.049Z,22.79
2023-05-19T09:24:24.848Z,22.79
2023-05-19T09:25:27.218Z,22.79
2023-05-19T09:26:40.456Z,22.79
2023-05-19T09:27:52.807Z,22.81
2023-05-19T09:29:05.816Z,22.84
2023-05-19T09:30:08.188Z,22.83
2023-05-19T09:31:21.366Z,22.83
2023-05-19T09:32:33.681Z,22.83
2023-05-19T09:33:36.877Z,22.83
2023-05-19T09:34:49.009Z,22.84
2023-05-19T09:36:01.857Z,22.86
2023-05-19T09:37:14.113Z,22.87
2023-05-19T09:38:17.376Z,22.86
2023-05-19T09:39:29.652Z,22.88
2023-05-19T09:40:42.850Z,22.87
2023-05-19T09:41:45.170Z,22.9
2023-05-19T09:42:58.368Z,22.9
2023-05-19T09:44:10.588Z,22.91
2023-05-19T09:45:23.361Z,22.93
2023-05-19T09:46:25.689Z,22.96
2023-05-19T09:47:38.932Z,22.94
2023-05-19T09:48:51.215Z,22.96
2023-05-19T09:50:04.326Z,22.94
2023-05-19T09:51:06.623Z,22.96
2023-05-19T09:52:19.873Z,22.93
2023-05-19T09:53:32.066Z,22.99
2023-05-19T09:54:35.387Z,22.96
2023-05-19T09:55:47.808Z,23.0
2023-05-19T09:57:00.852Z,23.01
2023-05-19T09:58:03.121Z,23.01
2023-05-19T09:59:15.845Z,23.01
2023-05-19T10:00:28.037Z,23.01
2023-05-19T10:01:40.854Z,23.01
2023-05-19T10:02:53.141Z,23.03
2023-05-19T10:05:23.492Z,23.04
2023-05-19T10:06:16.097Z,23.1
2023-05-19T10:07:28.899Z,23.07
2023-05-19T10:08:41.005Z,23.07
2023-05-19T10:09:43.900Z,23.08
2023-05-19T10:10:56.111Z,23.11
2023-05-19T10:12:08.895Z,23.13
2023-05-19T10:13:11.203Z,23.11
2023-05-19T10:14:24.383Z,23.14
2023-05-19T10:15:46.678Z,23.15
2023-05-19T10:16:50.402Z,23.14
2023-05-19T10:17:52.799Z,23.17
2023-05-19T10:19:05.925Z,23.15
2023-05-19T10:20:18.183Z,23.15
2023-05-19T10:21:21.399Z,23.17
2023-05-19T10:22:33.610Z,23.17
2023-05-19T10:23:46.384Z,23.18
2023-05-19T10:24:58.685Z,23.18
2023-05-19T10:26:01.870Z,23.21
2023-05-19T10:27:14.072Z,23.18
2023-05-19T10:28:26.892Z,23.21
2023-05-19T10:29:29.205Z,23.2
2023-05-19T10:30:42.399Z,23.23
2023-05-19T10:31:54.609Z,23.23
2023-05-19T10:33:07.949Z,23.24
2023-05-19T10:34:10.320Z,23.24
2023-05-19T10:35:23.397Z,23.25
2023-05-19T10:36:35.593Z,23.25
2023-05-19T10:37:38.923Z,23.27
2023-05-19T10:38:51.026Z,23.28
2023-05-19T10:40:03.909Z,23.28
2023-05-19T10:41:16.093Z,23.3
2023-05-19T10:42:19.385Z,23.28
2023-05-19T10:43:31.562Z,23.31
2023-05-19T10:44:44.399Z,23.3
2023-05-19T10:45:46.650Z,23.32
2023-05-19T10:46:59.431Z,23.35
2023-05-19T10:48:11.796Z,23.34
2023-05-19T10:49:24.916Z,23.35
2023-05-19T10:50:27.667Z,23.38
2023-05-19T10:51:40.693Z,23.35
2023-05-19T10:52:52.780Z,23.38
2023-05-19T10:53:55.933Z,23.37
2023-05-19T10:55:08.128Z,23.41
2023-05-19T10:56:20.929Z,23.42
2023-05-19T10:57:33.119Z,23.42
2023-05-19T10:58:36.430Z,23.42
2023-05-19T10:59:48.762Z,23.42
2023-05-19T11:01:01.970Z,23.44
2023-05-19T11:02:05.605Z,23.45
2023-05-19T11:03:18.440Z,23.47
2023-05-19T11:04:30.716Z,23.48
2023-05-19T11:05:34.065Z,23.47
2023-05-19T11:06:46.384Z,23.48
2023-05-19T11:07:59.408Z,23.51
2023-05-19T11:09:11.532Z,23.51
2023-05-19T11:10:14.452Z,23.52
2023-05-19T11:11:26.822Z,23.51
2023-05-19T11:12:39.924Z,23.52
2023-05-19T11:13:42.235Z,23.55
2023-05-19T11:14:55.541Z,23.52
2023-05-19T11:16:07.975Z,23.55
2023-05-19T11:17:20.904Z,23.55
2023-05-19T11:18:23.215Z,23.58
2023-05-19T11:19:36.423Z,23.58
2023-05-19T11:20:48.605Z,23.56
2023-05-19T11:21:51.905Z,23.58
2023-05-19T11:23:04.039Z,23.61
2023-05-19T11:24:16.905Z,23.62
2023-05-19T11:25:28.970Z,23.59
2023-05-19T11:26:31.903Z,23.61
2023-05-19T11:27:43.973Z,23.62
2023-05-19T11:28:56.888Z,23.65
2023-05-19T11:29:59.312Z,23.64
2023-05-19T11:31:12.431Z,23.62
2023-05-19T11:32:24.626Z,23.66
2023-05-19T11:33:37.426Z,23.66
2023-05-19T11:34:39.646Z,23.68
2023-05-19T11:35:52.460Z,23.68
2023-05-19T11:37:04.684Z,23.65
2023-05-19T11:38:17.434Z,23.69
2023-05-19T11:39:19.661Z,23.71
2023-05-19T11:40:32.938Z,23.72
2023-05-19T11:41:45.174Z,23.69
2023-05-19T11:42:48.448Z,23.72
2023-05-19T11:44:00.623Z,23.74
2023-05-19T11:45:13.408Z,23.72
2023-05-19T11:46:15.735Z,23.75
2023-05-19T11:47:28.962Z,23.74
2023-05-19T11:48:41.514Z,23.76
2023-05-19T11:49:54.448Z,23.76
2023-05-19T11:50:56.940Z,23.76
2023-05-19T11:52:09.950Z,23.78
2023-05-19T11:53:22.110Z,23.76
2023-05-19T11:54:24.909Z,23.76
2023-05-19T11:55:37.063Z,23.78
2023-05-19T11:56:49.920Z,23.79
2023-05-19T11:58:04.436Z,23.82
2023-05-19T11:59:08.415Z,23.79
2023-05-19T12:00:20.666Z,23.83
2023-05-19T12:01:23.941Z,23.82
2023-05-19T12:02:36.136Z,23.82
2023-05-19T12:03:49.262Z,23.83
2023-05-19T12:04:51.945Z,23.86
2023-05-19T12:06:05.470Z,23.85
2023-05-19T12:07:17.650Z,23.83
2023-05-19T12:08:30.417Z,23.86
2023-05-19T12:09:32.688Z,23.88
2023-05-19T12:10:45.462Z,23.86
2023-05-19T12:11:57.621Z,23.88
2023-05-19T12:13:00.429Z,23.86
2023-05-19T12:14:12.524Z,23.9
2023-05-19T12:15:25.429Z,23.88
2023-05-19T12:16:37.604Z,23.9
2023-05-19T12:17:40.934Z,23.92
2023-05-19T12:18:53.101Z,23.9
2023-05-19T12:20:05.930Z,23.9
2023-05-19T12:21:17.862Z,23.92
2023-05-19T12:22:20.925Z,23.93
2023-05-19T12:23:33.048Z,23.93
2023-05-19T12:24:45.917Z,23.92
2023-05-19T12:25:48.361Z,23.92
2023-05-19T12:27:01.420Z,23.95
2023-05-19T12:28:13.695Z,23.93
2023-05-19T12:29:26.428Z,23.95
2023-05-19T12:30:28.643Z,23.98
2023-05-19T12:31:41.462Z,23.95
2023-05-19T12:32:53.658Z,23.96
2023-05-19T12:33:56.969Z,23.96
2023-05-19T12:35:09.218Z,23.96
2023-05-19T12:36:21.938Z,23.96
2023-05-19T12:37:34.071Z,23.99
2023-05-19T12:38:36.959Z,23.98
2023-05-19T12:39:49.090Z,23.98
2023-05-19T12:41:01.948Z,23.98
2023-05-19T12:42:14.073Z,24.0
2023-05-19T12:43:26.475Z,23.99
2023-05-19T12:44:28.737Z,24.0
2023-05-19T12:45:42.002Z,24.0
2023-05-19T12:46:44.297Z,24.02
2023-05-19T12:47:57.505Z,24.05
2023-05-19T12:49:09.641Z,24.03
2023-05-19T12:50:22.534Z,24.02
2023-05-19T12:51:24.896Z,24.06
2023-05-19T12:52:38.226Z,24.06
2023-05-19T12:53:50.378Z,24.05
2023-05-19T12:54:53.510Z,24.06
2023-05-19T12:56:05.761Z,24.06
2023-05-19T12:57:18.954Z,24.07
2023-05-19T12:58:22.120Z,24.06
2023-05-19T12:59:38.719Z,24.03
2023-05-19T13:00:41.346Z,24.07
2023-05-19T13:01:54.479Z,24.06
2023-05-19T13:03:06.772Z,24.07
2023-05-19T13:04:19.961Z,24.07
2023-05-19T13:05:22.266Z,24.09
2023-05-19T13:06:34.935Z,24.09
2023-05-19T13:07:47.042Z,24.07
2023-05-19T13:08:59.966Z,24.07
2023-05-19T13:10:02.378Z,24.07
2023-05-19T13:11:15.442Z,24.09
2023-05-19T13:12:27.592Z,24.09
2023-05-19T13:13:30.527Z,24.1
2023-05-19T13:14:42.750Z,24.09
2023-05-19T13:15:55.451Z,24.1
2023-05-19T13:17:07.526Z,24.09
2023-05-19T13:18:10.506Z,24.1
2023-05-19T13:19:26.064Z,24.1
2023-05-19T13:20:29.444Z,24.11
2023-05-19T13:21:41.570Z,24.1
2023-05-19T13:22:54.442Z,24.11
2023-05-19T13:24:06.571Z,24.1
2023-05-19T13:25:09.466Z,24.1
2023-05-19T13:26:21.564Z,24.13
2023-05-19T13:27:34.455Z,24.11
2023-05-19T13:28:46.498Z,24.13
2023-05-19T13:29:49.474Z,24.1
2023-05-19T13:31:01.664Z,24.11
2023-05-19T13:32:14.454Z,24.11
2023-05-19T13:33:16.955Z,24.13
2023-05-19T13:34:29.997Z,24.13
2023-05-19T13:35:42.039Z,24.11
2023-05-19T13:36:55.029Z,24.11
2023-05-19T13:37:57.371Z,24.11
2023-05-19T13:39:10.463Z,24.13
2023-05-19T13:40:22.519Z,24.13
2023-05-19T13:41:35.448Z,24.11
2023-05-19T13:42:37.714Z,24.14
2023-05-19T13:43:50.508Z,24.13
2023-05-19T13:45:02.720Z,24.14
2023-05-19T13:46:06.058Z,24.13
2023-05-19T13:47:18.289Z,24.13
2023-05-19T13:48:40.976Z,24.16
2023-05-19T13:49:44.283Z,24.14
2023-05-19T13:50:47.468Z,24.14
2023-05-19T13:51:59.573Z,24.14
2023-05-19T13:53:12.477Z,24.14
2023-05-19T13:54:14.721Z,24.13
2023-05-19T13:55:28.504Z,24.16
2023-05-19T13:56:40.606Z,24.14
2023-05-19T13:57:53.462Z,24.14
2023-05-19T13:58:55.823Z,24.14
2023-05-19T14:00:08.479Z,24.16
2023-05-19T14:01:20.633Z,24.17
2023-05-19T14:02:23.982Z,24.19
2023-05-19T14:03:36.227Z,24.17
2023-05-19T14:04:49.449Z,24.17
2023-05-19T14:06:01.559Z,24.19
2023-05-19T14:07:04.497Z,24.17
2023-05-19T14:08:16.580Z,24.16
2023-05-19T14:09:29.935Z,24.14
2023-05-19T14:10:32.351Z,24.14
2023-05-19T14:11:45.965Z,24.16
2023-05-19T14:13:26.007Z,24.14
2023-05-19T14:14:21.526Z,24.16
2023-05-19T14:15:13.860Z,24.16
2023-05-19T14:16:46.226Z,24.19
2023-05-19T14:17:38.782Z,24.22
2023-05-19T14:18:41.111Z,24.2
2023-05-19T14:19:54.102Z,24.22
2023-05-19T14:21:06.141Z,24.22
2023-05-19T14:22:19.088Z,24.2
2023-05-19T14:23:21.323Z,24.23
2023-05-19T14:24:34.064Z,24.2
2023-05-19T14:25:46.165Z,24.2
2023-05-19T14:26:49.098Z,24.22
2023-05-19T14:28:01.107Z,24.23
2023-05-19T14:29:14.048Z,24.2
2023-05-19T14:30:26.068Z,24.19
2023-05-19T14:31:29.619Z,24.19
2023-05-19T14:32:41.707Z,24.19
2023-05-19T14:33:54.572Z,24.2
2023-05-19T14:34:56.829Z,24.19
2023-05-19T14:36:09.601Z,24.17
2023-05-19T14:37:21.766Z,24.17
2023-05-19T14:38:34.574Z,24.17
2023-05-19T14:39:36.771Z,24.16
2023-05-19T14:40:49.552Z,24.17
2023-05-19T14:42:01.580Z,24.17
2023-05-19T14:43:14.593Z,24.19
2023-05-19T14:44:16.799Z,24.16
2023-05-19T14:45:29.594Z,24.17
2023-05-19T14:46:41.741Z,24.16
2023-05-19T14:47:54.668Z,24.17
2023-05-19T14:48:57.026Z,24.17
2023-05-19T14:50:10.086Z,24.16
2023-05-19T14:51:22.128Z,24.16
2023-05-19T14:52:25.099Z,24.17
2023-05-19T14:53:37.325Z,24.17
2023-05-19T14:54:50.081Z,24.16
2023-05-19T14:56:02.181Z,24.19
2023-05-19T14:57:05.572Z,24.17
2023-05-19T14:58:28.376Z,24.17
2023-05-19T14:59:32.085Z,24.17
2023-05-19T15:00:34.509Z,24.17
2023-05-19T15:01:47.754Z,24.17
2023-05-19T15:02:59.986Z,24.19
2023-05-19T15:04:03.135Z,24.17